Weer

Current Metar

EHAM: EHAM 160455Z 34003KT 9999 FEW022CB 02/01 Q1007 TEMPO 31008G18KT SHRAGS
EHRD: EHRD 160455Z AUTO 31006KT 280V340 9999 FEW015CB 02/01 Q1007 REDZ TEMPO 33010G20KT 6000 SHRAGS SCT020CB
EHGG: EHGG 160455Z AUTO 25007KT 9999 FEW039 01/00 Q1004
EHEH: EHEH 160455Z AUTO 28005KT 230V320 4600 BR NCD 01/01 Q1007 GRN
EHBK: EHBK 160455Z AUTO 26004KT 230V310 2600 BR SCT002/// SCT004/// OVC015/// 02/02 Q1007 BECMG 1500 BKN002

Search METAR


Wind Charts

+ 0600h
FL100 FL180 FL240 FL300 FL340

+ 1200h
FL100 FL180 FL240 FL300 FL340

+ 1800h
FL100 FL180 FL240 FL300 FL340

+ 2400h
FL100 FL180 FL240 FL300 FL340

Europe & Africa charts only, updated daily.

 

Weather Services

MET Office